Time;durP1;ratioP1;P1;durP2;ratioP2;P2;SDS_P1;SDS_P2;PMS_P1;PMS_P2;Temp;Humidity;BMP_temperature;BMP_pressure;BME280_temperature;BME280_humidity;BME280_pressure;Samples;Min_cycle;Max_cycle;Signal;HPM_P1;HPM_P2
2022/11/02 00:01:38;;;;;;;1.38;0.50;;;;;;;13.93;51.31;101037.81;4983353;28;20023;-44
2022/11/02 00:04:04;;;;;;;4.47;0.50;;;;;;;13.83;51.25;101051.78;4995665;28;20073;-46
2022/11/02 00:06:30;;;;;;;3.75;0.77;;;;;;;13.78;50.94;101042.75;4995562;28;20031;-45
2022/11/02 00:08:56;;;;;;;1.95;0.60;;;;;;;13.77;51.73;101044.59;4980832;28;20026;-44
2022/11/02 00:11:23;;;;;;;1.80;0.50;;;;;;;13.74;50.53;101036.97;4979349;28;20054;-46
2022/11/02 00:13:49;;;;;;;2.15;0.60;;;;;;;13.71;50.79;101053.53;4977342;28;20058;-46
2022/11/02 00:16:18;;;;;;;2.50;0.70;;;;;;;13.66;50.72;101053.41;4988272;28;20022;-44
2022/11/02 00:18:46;;;;;;;3.67;0.60;;;;;;;13.59;50.69;101047.25;4994737;28;20042;-44
2022/11/02 00:21:16;;;;;;;7.93;0.90;;;;;;;13.58;50.85;101059.06;4995569;28;20360;-48
2022/11/02 00:23:44;;;;;;;1.42;0.40;;;;;;;13.58;51.66;101059.06;4976329;28;20105;-46
2022/11/02 00:26:10;;;;;;;1.67;0.50;;;;;;;13.56;51.41;101070.03;4976320;28;20035;-46
2022/11/02 00:28:37;;;;;;;1.45;0.50;;;;;;;13.51;51.29;101069.06;4984855;28;20030;-46
2022/11/02 00:31:03;;;;;;;2.22;0.63;;;;;;;13.44;52.27;101075.31;4994779;28;20199;-44
2022/11/02 00:33:30;;;;;;;2.20;0.60;;;;;;;13.38;51.63;101076.19;4994787;28;20030;-45
2022/11/02 00:35:57;;;;;;;2.38;0.50;;;;;;;13.35;51.95;101092.75;4976143;28;20030;-46
2022/11/02 00:38:23;;;;;;;2.47;0.60;;;;;;;13.27;53.31;101087.66;4989037;28;20030;-44
2022/11/02 00:40:49;;;;;;;3.85;0.60;;;;;;;13.21;52.15;101099.25;4989660;28;20101;-44
2022/11/02 00:43:15;;;;;;;4.20;0.60;;;;;;;13.14;51.85;101101.13;4976010;28;20098;-45
2022/11/02 00:45:41;;;;;;;3.72;0.60;;;;;;;13.13;52.20;101102.16;4993211;28;20034;-44
2022/11/02 00:48:08;;;;;;;3.45;0.60;;;;;;;13.05;52.12;101108.63;4984647;28;20034;-48
2022/11/02 00:50:34;;;;;;;2.90;0.63;;;;;;;13.07;52.37;101106.53;4993433;28;20030;-44
2022/11/02 00:53:00;;;;;;;6.65;0.93;;;;;;;12.92;53.15;101120.25;4991639;28;20030;-43
2022/11/02 00:55:26;;;;;;;3.03;0.60;;;;;;;13.00;52.32;101121.88;4993780;28;20101;-43
2022/11/02 00:57:53;;;;;;;2.47;0.60;;;;;;;13.01;52.45;101125.41;4993877;28;20081;-43
2022/11/02 01:00:19;;;;;;;2.22;0.73;;;;;;;12.94;53.19;101128.94;4981993;28;20027;-45
2022/11/02 01:02:45;;;;;;;3.70;0.50;;;;;;;12.86;53.93;101128.34;4985899;28;20039;-44
2022/11/02 01:05:12;;;;;;;4.68;0.60;;;;;;;12.81;53.85;101145.09;4991372;28;20105;-45
2022/11/02 01:07:39;;;;;;;2.35;0.63;;;;;;;12.76;53.78;101141.41;4991939;28;20878;-45
2022/11/02 01:10:06;;;;;;;3.10;0.68;;;;;;;12.69;54.19;101142.25;4989960;28;20039;-45
2022/11/02 01:12:32;;;;;;;2.97;0.60;;;;;;;12.65;54.47;101146.41;4980641;28;20558;-45
2022/11/02 01:14:59;;;;;;;1.65;0.52;;;;;;;12.60;54.46;101148.94;4974588;28;20448;-44
2022/11/02 01:17:25;;;;;;;2.85;0.70;;;;;;;12.55;55.25;101156.78;4975714;28;20113;-45
2022/11/02 01:19:51;;;;;;;4.40;0.88;;;;;;;12.56;55.81;101160.31;4994020;28;20455;-46
2022/11/02 01:22:17;;;;;;;2.60;0.57;;;;;;;12.49;55.90;101162.16;4994240;28;20030;-45
2022/11/02 01:24:44;;;;;;;4.00;0.73;;;;;;;12.46;55.78;101166.09;4994200;28;20014;-45
2022/11/02 01:27:10;;;;;;;4.75;0.70;;;;;;;12.48;55.73;101173.94;4993752;28;20434;-43
2022/11/02 01:29:36;;;;;;;3.45;0.70;;;;;;;12.43;56.61;101175.38;4994106;28;20404;-44
2022/11/02 01:32:02;;;;;;;2.17;0.63;;;;;;;12.34;56.72;101181.22;4993913;28;20018;-44
2022/11/02 01:34:28;;;;;;;1.88;0.60;;;;;;;12.42;57.02;101191.72;4993888;28;20498;-44
2022/11/02 01:36:54;;;;;;;6.20;0.80;;;;;;;12.37;57.25;101194.19;4994032;28;20030;-46
2022/11/02 01:39:21;;;;;;;2.42;0.47;;;;;;;12.21;56.86;101198.13;4991001;28;20034;-44
2022/11/02 01:41:54;;;;;;;4.15;1.00;;;;;;;12.08;57.31;101198.97;4993827;28;20038;-44
2022/11/02 01:44:30;;;;;;;3.15;0.95;;;;;;;12.11;58.34;101197.75;4993669;28;20426;-44
2022/11/02 01:47:14;;;;;;;3.55;0.60;;;;;;;12.23;57.98;101197.94;4993480;28;20180;-47
2022/11/02 01:49:44;;;;;;;2.15;0.55;;;;;;;12.15;58.17;101204.34;4993571;28;20037;-43
2022/11/02 01:52:18;;;;;;;5.07;0.85;;;;;;;12.03;58.71;101211.34;4993402;28;20108;-44
2022/11/02 01:55:07;;;;;;;2.92;0.60;;;;;;;11.99;59.69;101218.16;4973835;28;20380;-44
2022/11/02 01:57:37;;;;;;;2.72;0.60;;;;;;;12.03;59.48;101217.53;4962924;28;20030;-43
2022/11/02 02:00:10;;;;;;;2.75;0.70;;;;;;;11.95;59.80;101220.44;4973132;28;20039;-44
2022/11/02 02:02:51;;;;;;;2.75;0.85;;;;;;;11.83;60.57;101233.66;4979317;28;20062;-44
2022/11/02 02:05:19;;;;;;;5.32;0.77;;;;;;;11.88;60.40;101233.00;4993095;28;20042;-46
2022/11/02 02:07:46;;;;;;;3.33;0.50;;;;;;;11.83;60.45;101236.31;4992678;28;20427;-47
2022/11/02 02:10:13;;;;;;;2.63;0.80;;;;;;;11.75;61.37;101241.00;4992705;28;20041;-44
2022/11/02 02:12:41;;;;;;;4.72;0.80;;;;;;;11.72;62.26;101255.66;4977320;28;20066;-44
2022/11/02 02:15:09;;;;;;;6.25;0.98;;;;;;;11.72;62.69;101255.66;4973113;28;20051;-44
2022/11/02 02:17:57;;;;;;;4.22;0.70;;;;;;;11.72;63.30;101255.66;4973138;28;20027;-44
2022/11/02 02:20:44;;;;;;;7.47;1.05;;;;;;;11.57;64.03;101252.31;4973041;28;20472;-47
2022/11/02 02:23:38;;;;;;;3.67;0.60;;;;;;;11.48;64.57;101257.03;4973338;28;20066;-44
2022/11/02 02:26:34;;;;;;;4.35;1.00;;;;;;;11.53;64.94;101253.75;4973230;28;20018;-45
2022/11/02 02:29:07;;;;;;;2.83;0.80;;;;;;;11.41;65.97;101255.38;4990263;28;20041;-44
2022/11/02 02:31:41;;;;;;;4.70;1.00;;;;;;;11.51;65.59;101250.47;4992395;28;20041;-44
2022/11/02 02:34:16;;;;;;;2.65;0.60;;;;;;;11.51;65.69;101261.19;4992403;28;20080;-45
2022/11/02 02:36:45;;;;;;;;;;;;;;;11.52;66.17;101276.22;4992626;28;20109;-44
2022/11/02 02:39:33;;;;;;;10.18;1.20;;;;;;;11.44;66.62;101285.28;4992622;28;19914;-45
2022/11/02 02:42:11;;;;;;;3.47;0.90;;;;;;;11.53;66.41;101291.28;4992689;28;20034;-44
2022/11/02 02:44:42;;;;;;;2.88;0.88;;;;;;;11.51;66.48;101294.19;4992507;28;20019;-44
2022/11/02 02:47:16;;;;;;;3.50;1.00;;;;;;;11.53;66.40;101296.66;4992163;28;20076;-44
2022/11/02 02:49:57;;;;;;;4.68;1.00;;;;;;;11.56;66.50;101309.66;4973095;28;20027;-44
2022/11/02 02:52:25;;;;;;;3.65;0.90;;;;;;;11.57;66.58;101314.00;4972054;28;20085;-46
2022/11/02 02:54:56;;;;;;;2.72;1.15;;;;;;;11.48;66.85;101316.00;4981742;28;20034;-44
2022/11/02 02:57:25;;;;;;;4.90;0.70;;;;;;;11.50;66.87;101310.47;4987782;28;20125;-44
2022/11/02 02:59:51;;;;;;;5.18;0.70;;;;;;;11.63;66.70;101310.50;4987257;28;20034;-44
2022/11/02 03:02:22;;;;;;;7.60;0.85;;;;;;;11.57;66.50;101316.66;4989861;28;20037;-44
2022/11/02 03:04:48;;;;;;;2.58;0.95;;;;;;;11.52;66.86;101311.91;4991762;28;20048;-45
2022/11/02 03:07:20;;;;;;;4.15;0.88;;;;;;;11.56;66.91;101313.16;4991225;28;20161;-45
2022/11/02 03:10:08;;;;;;;4.05;0.90;;;;;;;11.67;66.68;101313.63;4990764;28;20387;-45
2022/11/02 03:13:10;;;;;;;2.70;0.63;;;;;;;11.58;66.83;101311.09;4984143;28;20125;-44
2022/11/02 03:15:55;;;;;;;3.08;0.80;;;;;;;11.76;66.46;101321.25;4953833;28;20043;-43
2022/11/02 03:18:47;;;;;;;2.35;0.88;;;;;;;11.71;66.67;101325.56;4951386;28;20108;-44
2022/11/02 03:21:40;;;;;;;7.30;1.40;;;;;;;11.77;66.42;101325.63;4952348;28;20035;-44
2022/11/02 03:24:16;;;;;;;6.18;1.30;;;;;;;11.64;66.71;101336.28;4953182;29;20227;-42
2022/11/02 03:27:11;;;;;;;5.78;1.20;;;;;;;11.66;66.27;101344.13;4951760;29;20033;-44
2022/11/02 03:30:03;;;;;;;6.55;1.42;;;;;;;11.63;66.52;101345.38;4950740;29;20062;-45
2022/11/02 03:32:56;;;;;;;6.07;1.80;;;;;;;11.61;66.38;101352.78;4953412;28;20416;-47
2022/11/02 03:35:50;;;;;;;9.45;2.00;;;;;;;11.61;66.27;101348.25;4947815;28;20460;-45
2022/11/02 03:38:31;;;;;;;5.30;1.38;;;;;;;11.62;66.17;101354.44;4950722;29;20107;-45
2022/11/02 03:41:00;;;;;;;5.00;1.02;;;;;;;11.60;65.84;101359.16;4948681;29;20119;-44
2022/11/02 03:43:28;;;;;;;3.63;0.70;;;;;;;11.52;66.11;101365.53;4951357;28;20158;-44
2022/11/02 03:45:56;;;;;;;4.78;1.00;;;;;;;11.59;66.05;101366.38;4950737;28;20113;-44
2022/11/02 03:48:28;;;;;;;2.95;0.68;;;;;;;11.50;66.07;101372.13;4950683;28;20111;-45
2022/11/02 03:50:58;;;;;;;6.50;0.88;;;;;;;11.42;66.36;101377.63;4951372;28;20032;-45
2022/11/02 03:53:41;;;;;;;7.50;0.95;;;;;;;11.44;65.96;101386.28;4953107;28;20030;-45
2022/11/02 03:56:13;;;;;;;4.13;0.73;;;;;;;11.36;66.05;101382.75;4951991;28;20032;-44
2022/11/02 03:58:39;;;;;;;4.03;0.90;;;;;;;11.30;66.23;101375.50;4949798;28;20373;-45
2022/11/02 04:01:07;;;;;;;4.70;0.98;;;;;;;11.48;65.99;101382.19;4951155;28;20030;-49
2022/11/02 04:03:38;;;;;;;4.40;1.60;;;;;;;11.30;66.46;101391.59;4952918;28;20506;-47
2022/11/02 04:06:04;;;;;;;2.58;0.93;;;;;;;11.22;66.35;101391.75;4952779;28;20038;-46
2022/11/02 04:08:35;;;;;;;4.65;1.05;;;;;;;11.13;66.71;101392.09;4956172;28;20069;-45
2022/11/02 04:16:30;;;;;;;5.47;0.90;;;;;;;10.95;66.99;101403.31;4990604;28;20038;-44
2022/11/02 04:25:14;;;;;;;4.53;1.10;;;;;;;10.79;67.46;101425.84;4993469;28;20045;-45
2022/11/02 04:27:11;;;;;;;3.08;0.93;;;;;;;10.70;67.13;101435.03;4987633;28;20122;-44
2022/11/02 04:29:37;;;;;;;3.85;0.93;;;;;;;10.53;67.19;101439.81;4993464;28;20097;-45
2022/11/02 04:32:04;;;;;;;2.90;0.90;;;;;;;10.63;66.36;101442.19;4993945;28;20022;-44
2022/11/02 04:34:30;;;;;;;2.00;0.60;;;;;;;10.70;66.08;101448.41;4991552;28;20031;-46
2022/11/02 04:36:56;;;;;;;2.72;0.70;;;;;;;10.64;65.85;101451.84;4991843;28;20073;-47
2022/11/02 04:39:22;;;;;;;1.88;0.85;;;;;;;10.70;65.76;101446.56;4993259;28;20034;-45
2022/11/02 04:41:48;;;;;;;3.03;0.75;;;;;;;10.74;65.89;101447.00;4993454;28;20066;-45
2022/11/02 04:44:15;;;;;;;2.40;0.68;;;;;;;10.82;66.19;101449.53;4993195;28;20030;-45
2022/11/02 04:46:43;;;;;;;4.47;1.00;;;;;;;10.90;66.39;101446.75;4992813;28;20030;-49
2022/11/02 04:49:10;;;;;;;4.85;0.95;;;;;;;10.91;66.70;101453.75;4991633;28;20517;-49
2022/11/02 04:51:39;;;;;;;3.45;1.30;;;;;;;10.57;67.31;101457.97;4990478;28;20059;-49
2022/11/02 04:54:05;;;;;;;3.58;0.90;;;;;;;10.57;67.23;101462.50;4994226;28;20027;-44
2022/11/02 04:56:31;;;;;;;2.28;0.90;;;;;;;10.56;67.28;101461.69;4993134;28;20026;-45
2022/11/02 04:58:59;;;;;;;3.90;1.02;;;;;;;10.57;67.37;101465.19;4992729;28;20034;-44
2022/11/02 05:01:28;;;;;;;3.25;0.95;;;;;;;10.77;66.08;101474.25;4991152;28;20117;-44
2022/11/02 05:03:55;;;;;;;3.25;0.90;;;;;;;10.60;66.51;101478.16;4991931;28;20084;-45
2022/11/02 05:06:22;;;;;;;3.50;0.70;;;;;;;10.59;66.57;101487.22;4990683;28;20030;-44
2022/11/02 05:08:49;;;;;;;3.85;0.90;;;;;;;10.58;66.83;101490.94;4993874;28;20068;-44
2022/11/02 05:11:15;;;;;;;3.40;1.00;;;;;;;10.68;66.92;101490.63;4992118;28;20026;-44
2022/11/02 05:13:43;;;;;;;6.15;0.80;;;;;;;10.56;67.17;101493.81;4979371;28;20066;-44
2022/11/02 05:16:15;;;;;;;4.32;0.82;;;;;;;10.53;67.83;101501.38;4984490;28;20026;-44
2022/11/02 05:18:41;;;;;;;1.80;0.70;;;;;;;10.63;67.51;101490.38;4991837;28;20072;-43
2022/11/02 05:21:09;;;;;;;3.10;0.82;;;;;;;10.76;67.40;101504.69;4980925;28;20093;-44
2022/11/02 05:23:36;;;;;;;4.68;1.30;;;;;;;10.66;67.40;101498.00;4988336;28;20034;-46
2022/11/02 05:26:09;;;;;;;3.90;0.70;;;;;;;10.82;67.01;101495.91;4993166;28;20040;-45
2022/11/02 05:28:35;;;;;;;5.22;0.95;;;;;;;10.61;67.24;101492.41;4991671;28;20539;-44
2022/11/02 05:31:02;;;;;;;4.05;1.35;;;;;;;10.60;67.32;101494.22;4991627;28;20117;-44
2022/11/02 05:33:30;;;;;;;5.00;0.90;;;;;;;10.64;66.89;101490.16;4979710;28;20430;-44
2022/11/02 05:35:57;;;;;;;5.00;0.93;;;;;;;10.75;66.79;101480.81;4992176;28;20479;-45
2022/11/02 05:38:24;;;;;;;5.30;0.90;;;;;;;10.90;66.48;101486.94;4991660;28;20030;-46
2022/11/02 05:40:55;;;;;;;2.60;0.90;;;;;;;10.87;66.81;101494.50;4983077;28;20068;-45
2022/11/02 05:43:22;;;;;;;5.35;1.27;;;;;;;10.80;67.14;101489.91;4979383;28;20031;-44
2022/11/02 05:45:57;;;;;;;2.55;0.80;;;;;;;10.89;67.24;101484.44;4987066;28;20037;-45
2022/11/02 05:48:24;;;;;;;3.78;0.90;;;;;;;11.04;67.02;101482.50;4988858;28;20065;-45
2022/11/02 05:50:55;;;;;;;5.50;1.02;;;;;;;11.05;66.45;101482.31;4991991;28;20041;-44
2022/11/02 05:53:22;;;;;;;3.17;0.98;;;;;;;11.16;65.60;101486.34;4991530;28;20056;-44
2022/11/02 05:55:48;;;;;;;3.03;0.70;;;;;;;11.32;65.25;101483.34;4991540;28;20080;-48
2022/11/02 05:58:15;;;;;;;4.47;0.90;;;;;;;11.21;65.37;101486.56;4990437;28;20041;-48
2022/11/02 06:00:41;;;;;;;4.15;0.90;;;;;;;11.21;64.64;101483.03;4976612;28;20030;-47
2022/11/02 06:03:07;;;;;;;3.90;0.90;;;;;;;11.26;64.41;101481.44;4989927;28;20037;-45
2022/11/02 06:05:34;;;;;;;6.88;1.00;;;;;;;11.25;64.12;101481.63;4992000;28;20030;-44
2022/11/02 06:08:01;;;;;;;2.85;0.73;;;;;;;11.37;63.60;101480.06;4992653;28;20037;-45
2022/11/02 06:10:29;;;;;;;2.97;0.70;;;;;;;11.32;64.00;101472.63;4991479;28;20022;-46
2022/11/02 06:13:01;;;;;;;5.95;1.00;;;;;;;11.24;64.41;101469.28;4991662;28;20026;-44
2022/11/02 06:15:30;;;;;;;7.18;1.27;;;;;;;11.37;64.85;101470.19;4989927;28;20061;-47
2022/11/02 06:17:56;;;;;;;7.60;1.23;;;;;;;11.30;65.17;101465.81;4990230;28;20072;-46
2022/11/02 06:20:23;;;;;;;5.13;1.20;;;;;;;11.43;65.17;101470.41;4990397;28;20038;-45
2022/11/02 06:22:50;;;;;;;5.53;1.13;;;;;;;11.57;65.48;101466.81;4989915;28;20518;-47
2022/11/02 06:25:16;;;;;;;6.07;1.15;;;;;;;11.41;66.01;101472.47;4990608;28;20030;-45
2022/11/02 06:27:51;;;;;;;4.25;1.10;;;;;;;11.39;66.38;101471.88;4990434;28;20065;-44
2022/11/02 06:30:17;;;;;;;5.57;1.10;;;;;;;11.21;66.87;101472.31;4990691;28;20033;-45
2022/11/02 06:32:48;;;;;;;6.63;1.30;;;;;;;11.33;67.11;101476.97;4989279;28;20497;-44
2022/11/02 06:35:16;;;;;;;4.15;1.10;;;;;;;11.20;67.59;101476.84;4987752;28;20034;-44
2022/11/02 06:37:42;;;;;;;6.35;1.00;;;;;;;11.24;67.59;101480.81;4984389;28;20031;-44
2022/11/02 06:40:10;;;;;;;6.75;1.40;;;;;;;11.41;67.42;101475.16;4988621;28;20065;-44
2022/11/02 06:42:36;;;;;;;3.33;1.15;;;;;;;11.13;67.84;101473.31;4990198;28;20088;-45
2022/11/02 06:45:03;;;;;;;7.72;1.40;;;;;;;11.19;67.96;101472.53;4991507;28;20027;-44
2022/11/02 06:47:34;;;;;;;4.50;1.30;;;;;;;11.25;67.89;101466.38;4990653;28;20399;-44
2022/11/02 06:50:00;;;;;;;3.88;1.17;;;;;;;11.08;68.61;101465.84;4990037;28;20022;-45
2022/11/02 06:52:27;;;;;;;5.35;0.95;;;;;;;10.94;69.29;101468.59;4989940;28;20318;-44
2022/11/02 06:54:54;;;;;;;4.90;1.23;;;;;;;10.87;69.24;101463.19;4989710;28;20486;-44
2022/11/02 06:57:20;;;;;;;3.38;0.98;;;;;;;10.84;69.37;101463.59;4989106;28;20073;-45
2022/11/02 06:59:47;;;;;;;4.13;1.10;;;;;;;10.81;69.36;101458.59;4989873;28;20034;-44
2022/11/02 07:02:13;;;;;;;5.80;1.52;;;;;;;11.00;69.08;101457.13;4987744;28;20034;-44
2022/11/02 07:04:40;;;;;;;4.65;1.63;;;;;;;10.94;69.45;101455.22;4989209;28;20084;-43
2022/11/02 07:07:06;;;;;;;4.57;1.48;;;;;;;10.84;70.12;101451.03;4988288;28;20034;-44
2022/11/02 07:09:32;;;;;;;3.25;1.13;;;;;;;10.83;70.09;101469.97;4991102;28;20027;-44
2022/11/02 07:11:59;;;;;;;4.10;1.05;;;;;;;10.67;70.13;101464.88;4990157;28;20426;-44
2022/11/02 07:14:25;;;;;;;2.97;0.90;;;;;;;10.67;69.89;101468.38;4893672;28;2780052;-44
2022/11/02 07:16:51;;;;;;;4.40;1.05;;;;;;;10.71;69.78;101469.63;4976102;28;20659;-44
2022/11/02 07:19:17;;;;;;;4.80;1.00;;;;;;;10.63;70.08;101469.78;4986208;28;20073;-44
2022/11/02 07:21:44;;;;;;;5.18;1.20;;;;;;;10.55;70.28;101467.22;4983778;28;20030;-44
2022/11/02 07:24:10;;;;;;;3.33;0.90;;;;;;;10.56;70.32;101477.75;4982230;28;20092;-44
2022/11/02 07:26:36;;;;;;;6.65;1.10;;;;;;;10.54;70.47;101471.72;4983414;28;20648;-44
2022/11/02 07:29:03;;;;;;;6.43;1.20;;;;;;;10.57;70.56;101479.41;4978310;28;20080;-44
2022/11/02 07:31:31;;;;;;;3.75;1.02;;;;;;;10.66;70.56;101474.75;4986901;28;20376;-44
2022/11/02 07:33:57;;;;;;;6.22;1.10;;;;;;;10.60;70.61;101475.50;4978533;28;20039;-44
2022/11/02 07:36:23;;;;;;;3.53;0.93;;;;;;;10.61;70.96;101485.22;4981393;28;20027;-44
2022/11/02 07:38:50;;;;;;;3.92;0.88;;;;;;;10.58;70.80;101485.56;4993524;28;20508;-44
2022/11/02 07:41:16;;;;;;;2.78;0.70;;;;;;;10.53;70.90;101482.63;4989438;28;20026;-44
2022/11/02 07:43:42;;;;;;;5.70;1.08;;;;;;;10.48;71.47;101490.41;4994626;28;20085;-44
2022/11/02 07:46:09;;;;;;;6.05;0.93;;;;;;;10.50;71.35;101491.06;4993542;28;20483;-44
2022/11/02 07:48:35;;;;;;;6.15;1.40;;;;;;;10.39;71.91;101491.56;4984417;28;20023;-44
2022/11/02 07:51:01;;;;;;;8.18;1.00;;;;;;;10.41;71.82;101493.00;4982321;28;20034;-45
2022/11/02 07:53:27;;;;;;;4.20;1.02;;;;;;;10.52;71.75;101492.53;4994042;28;20034;-45
2022/11/02 07:55:53;;;;;;;3.28;0.70;;;;;;;10.43;72.26;101490.97;4993155;28;20022;-45
2022/11/02 07:58:20;;;;;;;4.70;1.08;;;;;;;10.55;71.63;101499.34;4992075;28;20117;-44
2022/11/02 08:00:46;;;;;;;7.20;1.10;;;;;;;10.55;71.90;101502.03;4992991;28;20077;-45
2022/11/02 08:03:13;;;;;;;5.22;0.95;;;;;;;10.48;72.10;101503.78;4995307;28;20105;-45
2022/11/02 08:05:41;;;;;;;3.88;0.80;;;;;;;10.45;72.25;101498.81;4993542;28;20092;-47
2022/11/02 08:08:13;;;;;;;8.18;1.10;;;;;;;10.66;72.16;101511.38;4992936;28;20042;-44
2022/11/02 08:10:40;;;;;;;4.00;1.00;;;;;;;10.56;72.29;101517.91;4991068;28;20057;-44
2022/11/02 08:13:12;;;;;;;10.13;1.55;;;;;;;10.47;72.75;101510.16;4992881;28;20030;-45
2022/11/02 08:15:39;;;;;;;7.72;1.17;;;;;;;10.46;72.94;101509.34;4993526;28;20038;-44
2022/11/02 08:18:17;;;;;;;7.78;1.35;;;;;;;10.44;73.21;101507.88;4995036;28;20042;-44
2022/11/02 08:20:47;;;;;;;8.48;1.60;;;;;;;10.55;72.94;101512.75;4993655;28;20101;-45
2022/11/02 08:23:15;;;;;;;3.53;1.00;;;;;;;10.57;73.43;101513.38;4993324;28;20054;-45
2022/11/02 08:25:44;;;;;;;7.63;1.73;;;;;;;10.68;73.60;101517.41;4984711;28;20034;-44
2022/11/02 08:28:26;;;;;;;4.63;1.58;;;;;;;10.63;73.97;101519.81;4988831;28;20035;-47
2022/11/02 08:30:53;;;;;;;9.20;1.55;;;;;;;10.68;73.98;101520.06;4993693;28;20045;-42
2022/11/02 08:33:20;;;;;;;4.25;1.30;;;;;;;10.83;73.69;101518.19;4995029;28;20029;-42
2022/11/02 08:35:47;;;;;;;7.47;1.10;;;;;;;10.79;74.05;101523.06;4994630;28;20106;-42
2022/11/02 08:38:14;;;;;;;4.88;1.17;;;;;;;10.73;74.37;101521.16;4994258;28;20061;-44
2022/11/02 08:40:41;;;;;;;8.23;1.70;;;;;;;10.83;74.17;101527.03;4994433;28;20042;-44
2022/11/02 08:43:12;;;;;;;9.20;1.40;;;;;;;10.88;73.67;101529.13;4993955;28;20026;-43
2022/11/02 08:45:41;;;;;;;6.13;1.05;;;;;;;10.82;74.07;101528.03;4994370;28;20074;-42
2022/11/02 08:48:08;;;;;;;7.22;1.23;;;;;;;10.71;73.83;101527.72;4994086;28;20027;-42
2022/11/02 08:50:35;;;;;;;4.45;1.25;;;;;;;10.57;74.31;101527.59;4993055;28;20034;-43
2022/11/02 08:53:01;;;;;;;6.90;1.20;;;;;;;10.67;73.97;101529.13;4993771;28;20026;-43
2022/11/02 08:55:27;;;;;;;8.20;1.42;;;;;;;10.67;74.21;101531.81;4991469;28;20517;-43
2022/11/02 08:57:56;;;;;;;8.40;1.45;;;;;;;10.52;74.38;101529.16;4991903;28;20026;-45
2022/11/02 09:00:25;;;;;;;4.60;1.10;;;;;;;10.59;74.19;101530.06;4992632;28;20398;-45
2022/11/02 09:03:05;;;;;;;9.48;1.05;;;;;;;10.49;73.99;101525.03;4992196;28;20039;-46
2022/11/02 09:05:34;;;;;;;6.63;1.23;;;;;;;10.62;73.29;101531.53;4992414;28;20467;-48
2022/11/02 09:08:06;;;;;;;4.13;0.93;;;;;;;10.45;73.54;101528.28;4993591;28;20038;-46
2022/11/02 09:10:35;;;;;;;5.53;1.23;;;;;;;10.35;73.61;101530.41;4993333;28;20455;-46
2022/11/02 09:13:04;;;;;;;4.68;1.05;;;;;;;10.24;73.78;101529.03;4991879;28;20373;-45
2022/11/02 09:15:33;;;;;;;6.32;1.15;;;;;;;10.37;73.37;101526.50;4991415;28;20034;-45
2022/11/02 09:17:59;;;;;;;4.30;0.90;;;;;;;10.43;73.00;101528.44;4993675;28;20026;-45
2022/11/02 09:20:25;;;;;;;5.53;0.80;;;;;;;10.31;73.16;101528.09;4984729;28;20045;-48
2022/11/02 09:22:51;;;;;;;5.50;1.15;;;;;;;10.36;72.73;101540.91;4991908;28;20390;-45
2022/11/02 09:25:18;;;;;;;3.47;0.60;;;;;;;10.22;72.84;101550.59;4991685;28;20031;-45
2022/11/02 09:27:45;;;;;;;4.88;0.70;;;;;;;10.16;73.06;101540.66;4990445;28;20076;-45
2022/11/02 09:30:12;;;;;;;3.80;0.85;;;;;;;10.42;72.14;101550.03;4977703;28;20466;-47
2022/11/02 09:32:38;;;;;;;3.80;0.90;;;;;;;10.34;72.01;101558.19;4991901;28;20503;-46
2022/11/02 09:35:10;;;;;;;4.75;0.70;;;;;;;10.27;72.19;101558.94;4992151;28;20084;-46
2022/11/02 09:37:37;;;;;;;8.02;1.13;;;;;;;10.21;72.30;101564.97;4990769;28;20023;-48
2022/11/02 09:40:05;;;;;;;4.25;1.00;;;;;;;10.24;72.17;101559.28;4991507;28;20430;-48
2022/11/02 09:42:54;;;;;;;3.35;0.93;;;;;;;10.23;71.94;101563.00;4990644;28;20138;-47
2022/11/02 09:45:20;;;;;;;5.20;0.93;;;;;;;10.36;71.47;101564.16;4974581;28;20058;-46
2022/11/02 09:47:58;;;;;;;3.85;1.10;;;;;;;10.22;71.72;101563.97;4991388;28;20121;-44
2022/11/02 09:50:33;;;;;;;4.57;1.20;;;;;;;10.18;71.75;101567.22;4975404;28;20162;-45
2022/11/02 09:53:03;;;;;;;7.07;0.88;;;;;;;10.15;71.92;101567.56;4992992;28;20131;-45
2022/11/02 09:55:35;;;;;;;3.42;1.05;;;;;;;10.09;72.47;101561.13;4991197;28;20484;-45
2022/11/02 09:58:16;;;;;;;4.28;1.50;;;;;;;10.10;72.89;101568.13;4991220;28;20026;-44
2022/11/02 10:00:47;;;;;;;5.93;1.13;;;;;;;10.07;72.79;101567.69;4990230;28;20069;-45
2022/11/02 10:03:40;;;;;;;5.60;1.02;;;;;;;10.18;73.30;101569.88;4993096;28;20510;-45
2022/11/02 10:06:18;;;;;;;6.50;1.20;;;;;;;10.09;73.63;101565.63;4990451;28;20033;-45
2022/11/02 10:09:07;;;;;;;5.50;1.10;;;;;;;10.05;73.60;101567.88;4991625;28;20035;-46
2022/11/02 10:11:46;;;;;;;7.70;1.10;;;;;;;10.04;74.08;101571.53;4991856;28;20141;-45
2022/11/02 10:14:30;;;;;;;5.60;1.10;;;;;;;10.16;73.92;101574.56;4989063;28;20423;-45
2022/11/02 10:16:59;;;;;;;8.02;1.10;;;;;;;9.93;74.84;101575.50;4978028;28;20027;-44
2022/11/02 10:19:26;;;;;;;7.28;1.23;;;;;;;9.91;74.85;101574.84;4990944;28;20510;-46
2022/11/02 10:21:57;;;;;;;5.20;1.23;;;;;;;9.98;74.90;101570.44;4990326;28;20038;-45
2022/11/02 10:24:36;;;;;;;5.15;0.95;;;;;;;9.94;74.74;101573.69;4990851;28;20022;-45
2022/11/02 10:27:29;;;;;;;5.72;1.52;;;;;;;9.93;74.92;101574.66;4990708;28;20060;-47
2022/11/02 10:30:14;;;;;;;7.57;1.50;;;;;;;10.08;74.72;101578.19;4990327;28;20038;-46
2022/11/02 10:32:43;;;;;;;7.63;1.17;;;;;;;10.05;74.36;101571.38;4972574;28;20037;-45
2022/11/02 10:35:17;;;;;;;4.93;0.98;;;;;;;10.08;74.32;101575.50;4990238;28;20331;-44
2022/11/02 10:37:53;;;;;;;7.18;1.20;;;;;;;10.00;74.51;101572.94;4989923;28;20076;-45
2022/11/02 10:40:25;;;;;;;;;;;;;;;10.00;74.32;101583.63;4990613;28;20429;-46
2022/11/02 10:43:31;;;;;;;5.85;1.13;;;;;;;9.95;74.52;101573.50;4989107;28;20382;-45
2022/11/02 10:46:16;;;;;;;11.70;1.67;;;;;;;9.94;74.31;101579.03;4961158;28;20050;-46
2022/11/02 10:48:48;;;;;;;5.38;1.00;;;;;;;9.94;74.36;101579.84;4991008;28;20545;-45
2022/11/02 10:51:16;;;;;;;5.97;1.23;;;;;;;9.91;74.46;101579.38;4990888;28;20204;-44
2022/11/02 10:53:45;;;;;;;4.00;1.08;;;;;;;9.91;74.02;101574.84;4972811;28;20034;-45
2022/11/02 10:56:23;;;;;;;3.78;1.10;;;;;;;10.15;73.58;101578.28;4975697;28;20093;-47
2022/11/02 10:59:22;;;;;;;4.60;1.05;;;;;;;9.96;73.78;101580.50;4990468;28;20027;-45
2022/11/02 11:02:06;;;;;;;7.03;1.55;;;;;;;10.09;73.47;101581.69;4986987;28;20462;-44
2022/11/02 11:04:33;;;;;;;8.23;1.55;;;;;;;9.88;73.92;101583.22;4990798;28;20029;-45
2022/11/02 11:07:16;;;;;;;6.13;1.20;;;;;;;9.87;74.00;101588.78;4990005;28;20093;-46
2022/11/02 11:09:50;;;;;;;7.28;1.33;;;;;;;9.77;74.12;101589.88;4992008;28;20030;-45
2022/11/02 11:12:21;;;;;;;7.93;1.50;;;;;;;9.82;73.88;101592.00;4987310;28;20026;-45
2022/11/02 11:14:57;;;;;;;6.15;1.48;;;;;;;9.76;73.94;101596.22;4995755;28;20050;-45
2022/11/02 11:17:28;;;;;;;6.55;1.10;;;;;;;9.70;74.05;101599.63;4994574;28;20026;-45
2022/11/02 11:19:57;;;;;;;5.13;1.13;;;;;;;9.58;74.93;101594.91;4994317;28;20042;-45
2022/11/02 11:22:26;;;;;;;7.78;1.55;;;;;;;9.69;74.73;101592.63;4993764;28;20117;-45
2022/11/02 11:25:13;;;;;;;6.15;0.98;;;;;;;9.72;74.75;101594.94;4994088;28;20034;-46
2022/11/02 11:27:56;;;;;;;4.68;1.35;;;;;;;9.79;74.78;101597.72;4994070;28;20487;-47
2022/11/02 11:30:27;;;;;;;5.47;1.30;;;;;;;9.72;75.22;101608.31;4993181;28;20077;-46
2022/11/02 11:32:54;;;;;;;6.05;1.25;;;;;;;9.57;75.27;101603.94;4990524;28;20114;-44
2022/11/02 11:35:21;;;;;;;6.97;1.23;;;;;;;9.49;75.49;101607.50;4993861;28;20034;-46
2022/11/02 11:37:57;;;;;;;5.10;1.15;;;;;;;9.50;74.86;101612.69;4995594;28;20030;-45
2022/11/02 11:40:24;;;;;;;3.83;1.13;;;;;;;9.43;75.21;101614.38;4983144;28;20042;-49
2022/11/02 11:42:53;;;;;;;4.18;1.08;;;;;;;9.37;75.16;101627.66;4993965;28;20042;-47
2022/11/02 11:45:27;;;;;;;4.82;1.35;;;;;;;9.60;74.72;101620.44;4993835;28;20022;-47
2022/11/02 11:48:06;;;;;;;4.20;0.90;;;;;;;9.37;75.15;101630.31;4992685;28;20039;-47
2022/11/02 11:50:33;;;;;;;6.53;1.13;;;;;;;9.29;75.20;101619.72;4993233;28;20110;-45
2022/11/02 11:53:17;;;;;;;5.80;1.35;;;;;;;9.25;75.10;101622.72;4994038;28;20030;-44
2022/11/02 11:55:49;;;;;;;8.35;1.40;;;;;;;9.19;75.10;101618.09;4994101;28;20041;-46